createdAt,value
2023-01-22T00:00:04.692Z,322.10
2023-01-22T00:01:04.642Z,322.90
2023-01-22T00:02:04.641Z,328.70
2023-01-22T00:03:04.629Z,324.10
2023-01-22T00:04:04.646Z,332.10
2023-01-22T00:05:04.662Z,324.60
2023-01-22T00:06:04.590Z,271.50
2023-01-22T00:07:04.578Z,222.30
2023-01-22T00:08:04.556Z,211.60
2023-01-22T00:09:04.534Z,156.90
2023-01-22T00:10:04.569Z,175.30
2023-01-22T00:11:04.535Z,171.30
2023-01-22T00:12:04.514Z,124.60
2023-01-22T00:13:04.514Z,75.70
2023-01-22T00:14:04.523Z,82.50
2023-01-22T00:15:04.519Z,106.70
2023-01-22T00:16:04.525Z,101.00
2023-01-22T00:17:04.483Z,123.50
2023-01-22T00:18:04.447Z,264.20
2023-01-22T00:19:04.417Z,257.20
2023-01-22T00:20:04.469Z,324.00
2023-01-22T00:21:04.417Z,344.70
2023-01-22T00:22:04.417Z,309.00
2023-01-22T00:23:04.392Z,320.00
2023-01-22T00:24:04.414Z,333.90
2023-01-22T00:25:04.430Z,323.40
2023-01-22T00:26:04.401Z,328.70
2023-01-22T00:27:04.349Z,348.20
2023-01-22T00:28:04.347Z,339.20
2023-01-22T00:29:04.347Z,330.20
2023-01-22T00:30:04.373Z,324.80
2023-01-22T00:31:04.404Z,333.20
2023-01-22T00:32:04.397Z,323.00
2023-01-22T00:33:04.298Z,329.10
2023-01-22T00:34:04.278Z,341.20
2023-01-22T00:35:04.298Z,357.60
2023-01-22T00:36:04.234Z,353.80
2023-01-22T00:37:04.215Z,337.70
2023-01-22T00:38:04.230Z,324.70
2023-01-22T00:39:04.236Z,315.20
2023-01-22T00:40:04.253Z,331.50
2023-01-22T00:41:04.185Z,141.80
2023-01-22T00:42:04.170Z,202.00
2023-01-22T00:43:04.154Z,102.00
2023-01-22T00:44:04.152Z,93.70
2023-01-22T00:45:04.207Z,85.60
2023-01-22T00:46:04.132Z,124.40
2023-01-22T00:47:04.112Z,109.60
2023-01-22T00:48:04.100Z,92.60
2023-01-22T00:49:04.095Z,304.30
2023-01-22T00:50:04.142Z,344.50
2023-01-22T00:51:04.186Z,341.30
2023-01-22T00:52:04.060Z,308.30
2023-01-22T00:53:04.061Z,295.00
2023-01-22T00:54:04.039Z,302.30
2023-01-22T00:55:04.057Z,300.90
2023-01-22T00:56:04.006Z,303.50
2023-01-22T00:57:04.026Z,307.80
2023-01-22T00:58:04.000Z,304.00
2023-01-22T00:59:03.965Z,315.20
2023-01-22T01:00:04.025Z,131.20
2023-01-22T01:01:04.001Z,90.50
2023-01-22T01:02:04.030Z,126.00
2023-01-22T01:03:03.950Z,153.60
2023-01-22T01:04:03.918Z,116.80
2023-01-22T01:05:03.944Z,79.90
2023-01-22T01:06:03.893Z,200.60
2023-01-22T01:07:03.874Z,315.10
2023-01-22T01:08:03.872Z,428.00
2023-01-22T01:09:03.882Z,347.90
2023-01-22T01:10:03.904Z,392.30
2023-01-22T01:11:03.851Z,341.00
2023-01-22T01:12:03.839Z,323.40
2023-01-22T01:13:03.808Z,356.50
2023-01-22T01:14:03.824Z,345.40
2023-01-22T01:15:03.854Z,359.90
2023-01-22T01:16:03.901Z,335.00
2023-01-22T01:17:03.783Z,350.10
2023-01-22T01:18:03.763Z,356.70
2023-01-22T01:19:03.765Z,347.60
2023-01-22T01:20:03.788Z,296.90
2023-01-22T01:21:03.745Z,304.00
2023-01-22T01:22:03.718Z,237.60
2023-01-22T01:23:03.696Z,232.70
2023-01-22T01:24:03.708Z,179.90
2023-01-22T01:25:03.730Z,211.20
2023-01-22T01:26:03.684Z,178.10
2023-01-22T01:27:03.652Z,235.50
2023-01-22T01:28:03.649Z,235.90
2023-01-22T01:29:03.644Z,174.00
2023-01-22T01:30:03.694Z,197.20
2023-01-22T01:31:03.756Z,167.30
2023-01-22T01:32:03.713Z,238.20
2023-01-22T01:33:03.603Z,197.70
2023-01-22T01:34:03.591Z,141.50
2023-01-22T01:35:03.606Z,228.40
2023-01-22T01:36:03.547Z,166.90
2023-01-22T01:37:03.552Z,301.70
2023-01-22T01:38:03.541Z,548.50
2023-01-22T01:39:03.539Z,482.50
2023-01-22T01:40:03.582Z,373.30
2023-01-22T01:41:03.510Z,367.20
2023-01-22T01:42:03.496Z,362.80
2023-01-22T01:43:03.492Z,371.70
2023-01-22T01:44:03.484Z,393.50
2023-01-22T01:45:03.505Z,407.50
2023-01-22T01:46:03.465Z,357.60
2023-01-22T01:47:03.444Z,410.50
2023-01-22T01:48:03.443Z,366.20
2023-01-22T01:49:03.424Z,374.10
2023-01-22T01:50:03.406Z,376.10
2023-01-22T01:51:03.501Z,373.00
2023-01-22T01:52:03.383Z,383.50
2023-01-22T01:53:03.385Z,382.30
2023-01-22T01:54:03.385Z,381.00
2023-01-22T01:55:03.350Z,379.00
2023-01-22T01:56:03.398Z,387.10
2023-01-22T01:57:03.331Z,416.70
2023-01-22T01:58:03.345Z,389.00
2023-01-22T01:59:03.314Z,396.70
2023-01-22T02:00:03.305Z,383.60
2023-01-22T02:01:03.373Z,389.00
2023-01-22T02:02:03.298Z,391.10
2023-01-22T02:03:03.248Z,389.90
2023-01-22T02:04:03.242Z,372.40
2023-01-22T02:05:03.247Z,372.90
2023-01-22T02:06:03.297Z,383.90
2023-01-22T02:07:03.212Z,379.40
2023-01-22T02:08:03.188Z,376.10
2023-01-22T02:09:03.178Z,390.20
2023-01-22T02:10:03.183Z,211.20
2023-01-22T02:11:03.223Z,243.70
2023-01-22T02:12:03.158Z,250.30
2023-01-22T02:13:03.144Z,207.60
2023-01-22T02:14:03.148Z,179.50
2023-01-22T02:15:03.130Z,108.70
2023-01-22T02:16:03.236Z,102.10
2023-01-22T02:17:03.102Z,86.90
2023-01-22T02:18:03.089Z,105.10
2023-01-22T02:19:03.074Z,78.20
2023-01-22T02:20:03.067Z,78.30
2023-01-22T02:21:03.104Z,93.70
2023-01-22T02:22:03.043Z,92.80
2023-01-22T02:23:03.032Z,103.70
2023-01-22T02:24:03.030Z,132.80
2023-01-22T02:25:03.015Z,145.60
2023-01-22T02:26:03.043Z,147.70
2023-01-22T02:27:02.971Z,117.80
2023-01-22T02:28:02.972Z,111.60
2023-01-22T02:29:02.969Z,101.10
2023-01-22T02:30:02.957Z,329.10
2023-01-22T02:31:03.055Z,393.00
2023-01-22T02:32:02.940Z,553.40
2023-01-22T02:33:02.927Z,400.70
2023-01-22T02:34:02.903Z,402.70
2023-01-22T02:35:02.913Z,405.20
2023-01-22T02:36:02.916Z,407.80
2023-01-22T02:37:02.871Z,400.80
2023-01-22T02:38:02.881Z,405.70
2023-01-22T02:39:02.873Z,380.10
2023-01-22T02:40:02.840Z,377.80
2023-01-22T02:41:02.884Z,382.40
2023-01-22T02:42:02.827Z,345.80
2023-01-22T02:43:02.800Z,357.90
2023-01-22T02:44:02.800Z,381.60
2023-01-22T02:45:02.768Z,377.20
2023-01-22T02:46:02.916Z,382.80
2023-01-22T02:47:02.774Z,392.30
2023-01-22T02:48:02.753Z,398.30
2023-01-22T02:49:02.744Z,390.60
2023-01-22T02:50:02.718Z,389.60
2023-01-22T02:51:02.807Z,210.20
2023-01-22T02:52:02.707Z,258.70
2023-01-22T02:53:02.733Z,168.60
2023-01-22T02:54:02.688Z,137.40
2023-01-22T02:55:02.651Z,151.40
2023-01-22T02:56:02.690Z,156.30
2023-01-22T02:57:02.630Z,158.30
2023-01-22T02:58:02.626Z,114.10
2023-01-22T02:59:02.631Z,116.10
2023-01-22T03:00:02.642Z,293.50
2023-01-22T03:01:02.669Z,475.50
2023-01-22T03:02:02.662Z,367.80
2023-01-22T03:03:02.588Z,427.30
2023-01-22T03:04:02.567Z,417.20
2023-01-22T03:05:02.579Z,420.50
2023-01-22T03:06:02.593Z,411.90
2023-01-22T03:07:02.520Z,412.30
2023-01-22T03:08:02.519Z,415.10
2023-01-22T03:09:02.554Z,391.20
2023-01-22T03:10:02.513Z,375.60
2023-01-22T03:11:02.515Z,425.70
2023-01-22T03:12:02.476Z,445.40
2023-01-22T03:13:02.467Z,375.70
2023-01-22T03:14:02.468Z,408.10
2023-01-22T03:15:02.434Z,430.20
2023-01-22T03:16:02.487Z,401.80
2023-01-22T03:17:02.423Z,417.60
2023-01-22T03:18:02.406Z,417.50
2023-01-22T03:19:02.379Z,394.90
2023-01-22T03:20:02.393Z,362.90
2023-01-22T03:21:02.486Z,364.70
2023-01-22T03:22:02.394Z,400.10
2023-01-22T03:23:02.332Z,341.40
2023-01-22T03:24:02.331Z,363.50
2023-01-22T03:25:02.319Z,363.30
2023-01-22T03:26:02.372Z,350.90
2023-01-22T03:27:02.306Z,371.70
2023-01-22T03:28:02.331Z,362.10
2023-01-22T03:29:02.272Z,390.50
2023-01-22T03:30:02.295Z,374.40
2023-01-22T03:31:02.324Z,389.80
2023-01-22T03:32:02.349Z,357.00
2023-01-22T03:33:02.256Z,367.00
2023-01-22T03:34:02.220Z,376.50
2023-01-22T03:35:02.229Z,379.80
2023-01-22T03:36:02.248Z,373.50
2023-01-22T03:37:02.204Z,385.40
2023-01-22T03:38:02.167Z,390.90
2023-01-22T03:39:02.158Z,373.60
2023-01-22T03:40:02.169Z,397.10
2023-01-22T03:41:02.190Z,368.10
2023-01-22T03:42:02.126Z,395.60
2023-01-22T03:43:02.132Z,375.90
2023-01-22T03:44:02.125Z,376.00
2023-01-22T03:45:02.098Z,389.30
2023-01-22T03:46:02.201Z,412.30
2023-01-22T03:47:02.070Z,407.20
2023-01-22T03:48:02.093Z,435.30
2023-01-22T03:49:02.063Z,435.90
2023-01-22T03:50:02.048Z,417.10
2023-01-22T03:51:02.089Z,407.30
2023-01-22T03:52:02.011Z,388.60
2023-01-22T03:53:02.010Z,424.70
2023-01-22T03:54:02.021Z,411.00
2023-01-22T03:55:01.980Z,419.00
2023-01-22T03:56:02.030Z,386.00
2023-01-22T03:57:01.972Z,364.00
2023-01-22T03:58:01.969Z,397.80
2023-01-22T03:59:01.939Z,380.10
2023-01-22T04:00:01.941Z,343.10
2023-01-22T04:01:02.039Z,218.50
2023-01-22T04:02:01.949Z,177.10
2023-01-22T04:03:01.917Z,183.30
2023-01-22T04:04:01.897Z,98.40
2023-01-22T04:05:01.887Z,116.10
2023-01-22T04:06:01.925Z,103.20
2023-01-22T04:07:01.838Z,120.90
2023-01-22T04:08:01.845Z,115.30
2023-01-22T04:09:01.831Z,289.00
2023-01-22T04:10:01.838Z,386.10
2023-01-22T04:11:01.866Z,372.80
2023-01-22T04:12:01.810Z,394.30
2023-01-22T04:13:01.781Z,398.10
2023-01-22T04:14:01.773Z,381.50
2023-01-22T04:15:01.750Z,419.40
2023-01-22T04:16:01.830Z,383.60
2023-01-22T04:17:01.718Z,385.00
2023-01-22T04:18:01.705Z,413.40
2023-01-22T04:19:01.697Z,420.20
2023-01-22T04:20:01.697Z,379.90
2023-01-22T04:21:01.758Z,405.90
2023-01-22T04:22:01.671Z,387.60
2023-01-22T04:23:01.672Z,386.30
2023-01-22T04:24:01.641Z,366.80
2023-01-22T04:25:01.660Z,371.30
2023-01-22T04:26:01.679Z,376.30
2023-01-22T04:27:01.627Z,375.40
2023-01-22T04:28:01.604Z,403.10
2023-01-22T04:29:01.581Z,365.80
2023-01-22T04:30:01.584Z,407.40
2023-01-22T04:31:01.676Z,397.70
2023-01-22T04:32:01.584Z,390.70
2023-01-22T04:33:01.589Z,405.10
2023-01-22T04:34:01.557Z,386.00
2023-01-22T04:35:01.544Z,360.20
2023-01-22T04:36:01.564Z,292.70
2023-01-22T04:37:01.551Z,365.60
2023-01-22T04:38:01.488Z,390.50
2023-01-22T04:39:01.474Z,391.80
2023-01-22T04:40:01.470Z,404.90
2023-01-22T04:41:01.543Z,381.30
2023-01-22T04:42:01.453Z,357.90
2023-01-22T04:43:01.439Z,358.70
2023-01-22T04:44:01.426Z,362.80
2023-01-22T04:45:01.412Z,375.10
2023-01-22T04:46:01.403Z,392.90
2023-01-22T04:47:01.428Z,389.20
2023-01-22T04:48:01.365Z,382.40
2023-01-22T04:49:01.370Z,398.40
2023-01-22T04:50:01.348Z,394.60
2023-01-22T04:51:01.382Z,384.90
2023-01-22T04:52:01.364Z,401.30
2023-01-22T04:53:01.344Z,433.20
2023-01-22T04:54:01.306Z,262.10
2023-01-22T04:55:01.285Z,447.70
2023-01-22T04:56:01.288Z,435.00
2023-01-22T04:57:01.317Z,437.80
2023-01-22T04:58:01.279Z,381.00
2023-01-22T04:59:01.249Z,436.40
2023-01-22T05:00:01.248Z,418.20
2023-01-22T05:01:01.303Z,382.20
2023-01-22T05:02:01.263Z,388.30
2023-01-22T05:03:01.216Z,444.20
2023-01-22T05:04:01.195Z,409.20
2023-01-22T05:05:01.180Z,390.50
2023-01-22T05:06:01.166Z,317.00
2023-01-22T05:07:01.223Z,261.30
2023-01-22T05:08:01.145Z,251.00
2023-01-22T05:09:01.152Z,141.80
2023-01-22T05:10:01.125Z,159.20
2023-01-22T05:11:01.111Z,155.10
2023-01-22T05:12:01.148Z,157.30
2023-01-22T05:13:01.090Z,150.80
2023-01-22T05:14:01.106Z,156.70
2023-01-22T05:15:01.077Z,139.10
2023-01-22T05:16:01.141Z,133.70
2023-01-22T05:17:01.083Z,137.30
2023-01-22T05:18:01.035Z,167.90
2023-01-22T05:19:01.056Z,104.50
2023-01-22T05:20:01.005Z,94.20
2023-01-22T05:21:00.991Z,87.90
2023-01-22T05:22:01.044Z,96.60
2023-01-22T05:23:00.983Z,83.70
2023-01-22T05:24:00.959Z,206.30
2023-01-22T05:25:00.959Z,158.20
2023-01-22T05:26:00.944Z,428.20
2023-01-22T05:27:00.985Z,431.90
2023-01-22T05:28:00.932Z,468.90
2023-01-22T05:29:00.936Z,471.40
2023-01-22T05:30:00.896Z,461.80
2023-01-22T05:31:01.023Z,447.20
2023-01-22T05:32:00.927Z,441.10
2023-01-22T05:33:00.855Z,443.10
2023-01-22T05:34:00.869Z,451.10
2023-01-22T05:35:00.861Z,443.60
2023-01-22T05:36:00.856Z,457.40
2023-01-22T05:37:00.871Z,278.00
2023-01-22T05:38:00.808Z,107.90
2023-01-22T05:39:00.778Z,87.20
2023-01-22T05:40:00.791Z,128.90
2023-01-22T05:41:00.776Z,185.30
2023-01-22T05:42:00.805Z,158.70
2023-01-22T05:43:00.737Z,98.70
2023-01-22T05:44:00.741Z,244.10
2023-01-22T05:45:00.711Z,650.00
2023-01-22T05:46:00.756Z,420.70
2023-01-22T05:47:00.751Z,441.50
2023-01-22T05:48:00.699Z,459.00
2023-01-22T05:49:00.675Z,409.60
2023-01-22T05:50:00.667Z,426.30
2023-01-22T05:51:00.655Z,455.70
2023-01-22T05:52:00.687Z,435.20
2023-01-22T05:53:00.629Z,468.60
2023-01-22T05:54:00.634Z,450.80
2023-01-22T05:55:00.622Z,446.70
2023-01-22T05:56:00.610Z,468.80
2023-01-22T05:57:00.646Z,469.70
2023-01-22T05:58:00.565Z,495.90
2023-01-22T05:59:00.563Z,270.70
2023-01-22T06:00:00.575Z,97.00
2023-01-22T06:01:00.544Z,85.20
2023-01-22T06:02:00.583Z,142.30
2023-01-22T06:03:00.524Z,150.50
2023-01-22T06:04:00.541Z,143.70
2023-01-22T06:05:00.554Z,134.60
2023-01-22T06:06:00.491Z,125.60
2023-01-22T06:07:00.510Z,109.50
2023-01-22T06:08:00.479Z,101.70
2023-01-22T06:09:00.461Z,83.60
2023-01-22T06:10:00.452Z,119.10
2023-01-22T06:11:00.423Z,232.20
2023-01-22T06:12:00.472Z,663.20
2023-01-22T06:13:00.394Z,509.00
2023-01-22T06:14:00.406Z,605.70
2023-01-22T06:15:00.424Z,451.30
2023-01-22T06:16:00.442Z,492.70
2023-01-22T06:17:00.391Z,517.50
2023-01-22T06:18:00.349Z,493.80
2023-01-22T06:19:00.333Z,501.60
2023-01-22T06:20:00.345Z,489.60
2023-01-22T06:21:00.322Z,455.00
2023-01-22T06:22:00.351Z,494.20
2023-01-22T06:23:00.300Z,485.90
2023-01-22T06:24:00.295Z,483.80
2023-01-22T06:25:00.271Z,501.00
2023-01-22T06:26:00.284Z,488.30
2023-01-22T06:27:00.288Z,493.30
2023-01-22T06:28:00.230Z,497.60
2023-01-22T06:29:00.224Z,491.40
2023-01-22T06:30:00.220Z,502.90
2023-01-22T06:31:00.263Z,492.90
2023-01-22T06:32:00.240Z,503.00
2023-01-22T06:33:00.177Z,483.00
2023-01-22T06:34:00.173Z,473.80
2023-01-22T06:35:00.169Z,458.20
2023-01-22T06:36:00.154Z,452.00
2023-01-22T06:37:00.180Z,446.10
2023-01-22T06:38:00.145Z,459.00
2023-01-22T06:39:00.228Z,475.60
2023-01-22T06:40:00.142Z,457.00
2023-01-22T06:41:00.099Z,391.30
2023-01-22T06:42:00.115Z,462.40
2023-01-22T06:43:00.065Z,430.50
2023-01-22T06:44:00.048Z,422.20
2023-01-22T06:45:00.045Z,457.40
2023-01-22T06:46:00.071Z,430.30
2023-01-22T06:47:00.099Z,470.10
2023-01-22T06:48:00.000Z,445.40
2023-01-22T06:48:59.982Z,470.60
2023-01-22T06:49:59.994Z,475.00
2023-01-22T06:51:00.002Z,475.00
2023-01-22T06:52:00.005Z,457.10
2023-01-22T06:52:59.947Z,460.80
2023-01-22T06:53:59.936Z,451.70
2023-01-22T06:54:59.920Z,496.10
2023-01-22T06:55:59.915Z,483.60
2023-01-22T06:56:59.951Z,509.40
2023-01-22T06:57:59.891Z,478.30
2023-01-22T06:58:59.923Z,450.20
2023-01-22T06:59:59.882Z,505.10
2023-01-22T07:00:59.862Z,450.30
2023-01-22T07:02:00.003Z,472.20
2023-01-22T07:02:59.842Z,493.70
2023-01-22T07:03:59.914Z,488.70
2023-01-22T07:04:59.825Z,475.00
2023-01-22T07:05:59.814Z,491.00
2023-01-22T07:06:59.831Z,512.20
2023-01-22T07:07:59.762Z,502.60
2023-01-22T07:08:59.757Z,516.10
2023-01-22T07:09:59.772Z,502.10
2023-01-22T07:10:59.775Z,514.30
2023-01-22T07:11:59.731Z,499.60
2023-01-22T07:12:59.778Z,522.70
2023-01-22T07:13:59.711Z,534.00
2023-01-22T07:14:59.711Z,516.00
2023-01-22T07:15:59.792Z,537.60
2023-01-22T07:16:59.679Z,559.80
2023-01-22T07:17:59.703Z,536.30
2023-01-22T07:18:59.659Z,577.40
2023-01-22T07:19:59.664Z,563.70
2023-01-22T07:20:59.655Z,562.60
2023-01-22T07:21:59.627Z,575.00
2023-01-22T07:23:00.233Z,552.90
2023-01-22T07:23:59.607Z,566.40
2023-01-22T07:24:59.613Z,560.10
2023-01-22T07:25:59.580Z,546.00
2023-01-22T07:26:59.606Z,551.10
2023-01-22T07:27:59.603Z,557.00
2023-01-22T07:28:59.575Z,568.90
2023-01-22T07:29:59.531Z,573.10
2023-01-22T07:30:59.645Z,561.80
2023-01-22T07:31:59.506Z,574.20
2023-01-22T07:32:59.549Z,578.40
2023-01-22T07:33:59.473Z,573.90
2023-01-22T07:34:59.469Z,584.60
2023-01-22T07:35:59.456Z,582.10
2023-01-22T07:36:59.470Z,567.90
2023-01-22T07:37:59.493Z,583.30
2023-01-22T07:38:59.452Z,587.20
2023-01-22T07:39:59.416Z,583.40
2023-01-22T07:40:59.414Z,586.80
2023-01-22T07:41:59.399Z,591.60
2023-01-22T07:42:59.444Z,578.70
2023-01-22T07:43:59.375Z,595.00
2023-01-22T07:44:59.367Z,600.90
2023-01-22T07:45:59.363Z,598.60
2023-01-22T07:46:59.326Z,597.90
2023-01-22T07:47:59.380Z,565.00
2023-01-22T07:48:59.325Z,532.40
2023-01-22T07:49:59.291Z,475.60
2023-01-22T07:50:59.333Z,242.00
2023-01-22T07:51:59.290Z,67.50
2023-01-22T07:52:59.317Z,74.10
2023-01-22T07:53:59.242Z,93.10
2023-01-22T07:54:59.260Z,79.40
2023-01-22T07:55:59.251Z,74.40
2023-01-22T07:56:59.255Z,77.00
2023-01-22T07:57:59.261Z,179.40
2023-01-22T07:58:59.206Z,190.20
2023-01-22T07:59:59.208Z,185.00
2023-01-22T08:00:59.235Z,138.30
2023-01-22T08:02:00.269Z,99.20
2023-01-22T08:02:59.200Z,74.40
2023-01-22T08:03:59.148Z,92.00
2023-01-22T08:04:59.131Z,120.00
2023-01-22T08:05:59.108Z,132.30
2023-01-22T08:06:59.132Z,187.40
2023-01-22T08:07:59.152Z,146.30
2023-01-22T08:08:59.116Z,69.80
2023-01-22T08:09:59.081Z,69.70
2023-01-22T08:10:59.086Z,185.60
2023-01-22T08:11:59.048Z,205.20
2023-01-22T08:12:59.118Z,63.70
2023-01-22T08:13:59.093Z,64.30
2023-01-22T08:14:59.017Z,136.10
2023-01-22T08:15:59.152Z,215.50
2023-01-22T08:16:59.002Z,63.90
2023-01-22T08:17:59.073Z,61.40
2023-01-22T08:18:58.977Z,81.10
2023-01-22T08:19:59.002Z,142.60
2023-01-22T08:20:58.964Z,159.00
2023-01-22T08:21:58.927Z,151.70
2023-01-22T08:22:58.975Z,70.90
2023-01-22T08:23:58.942Z,84.10
2023-01-22T08:24:58.917Z,127.40
2023-01-22T08:25:58.902Z,227.10
2023-01-22T08:26:58.901Z,168.10
2023-01-22T08:27:58.936Z,178.70
2023-01-22T08:28:58.846Z,75.40
2023-01-22T08:29:58.836Z,68.70
2023-01-22T08:30:58.831Z,92.50
2023-01-22T08:31:59.004Z,205.20
2023-01-22T08:32:58.871Z,161.30
2023-01-22T08:33:58.831Z,88.30
2023-01-22T08:34:58.809Z,62.00
2023-01-22T08:35:58.774Z,154.20
2023-01-22T08:36:58.781Z,229.10
2023-01-22T08:37:58.808Z,189.20
2023-01-22T08:38:58.764Z,158.90
2023-01-22T08:39:58.731Z,82.00
2023-01-22T08:40:58.752Z,105.50
2023-01-22T08:41:58.703Z,123.30
2023-01-22T08:42:58.755Z,173.50
2023-01-22T08:43:58.686Z,246.90
2023-01-22T08:44:58.671Z,118.70
2023-01-22T08:45:58.684Z,88.40
2023-01-22T08:46:58.674Z,89.40
2023-01-22T08:47:58.692Z,229.30
2023-01-22T08:48:58.639Z,214.00
2023-01-22T08:49:58.623Z,115.10
2023-01-22T08:50:58.701Z,93.90
2023-01-22T08:51:58.609Z,94.30
2023-01-22T08:52:58.650Z,208.70
2023-01-22T08:53:58.577Z,208.90
2023-01-22T08:54:58.584Z,174.00
2023-01-22T08:55:58.645Z,66.70
2023-01-22T08:56:58.554Z,103.80
2023-01-22T08:57:58.560Z,213.00
2023-01-22T08:58:58.572Z,202.80
2023-01-22T09:00:01.341Z,130.30
2023-01-22T09:00:58.524Z,130.70
2023-01-22T09:01:58.531Z,85.30
2023-01-22T09:02:58.555Z,191.90
2023-01-22T09:03:58.475Z,253.00
2023-01-22T09:04:58.459Z,75.20
2023-01-22T09:05:58.448Z,104.30
2023-01-22T09:06:58.456Z,225.90
2023-01-22T09:07:58.475Z,268.10
2023-01-22T09:08:58.403Z,233.30
2023-01-22T09:09:58.389Z,207.30
2023-01-22T09:10:58.398Z,184.90
2023-01-22T09:11:58.372Z,224.80
2023-01-22T09:12:58.420Z,297.60
2023-01-22T09:13:58.375Z,295.20
2023-01-22T09:14:58.358Z,320.00
2023-01-22T09:15:58.623Z,157.50
2023-01-22T09:16:58.325Z,320.00
2023-01-22T09:17:58.345Z,378.40
2023-01-22T09:18:58.307Z,355.80
2023-01-22T09:19:58.304Z,371.70
2023-01-22T09:20:58.277Z,238.50
2023-01-22T09:21:58.300Z,320.20
2023-01-22T09:22:58.285Z,575.50
2023-01-22T09:23:58.237Z,785.00
2023-01-22T09:24:58.209Z,283.30
2023-01-22T09:25:58.215Z,242.00
2023-01-22T09:26:58.205Z,370.00
2023-01-22T09:27:58.247Z,516.80
2023-01-22T09:28:58.201Z,524.10
2023-01-22T09:29:58.174Z,284.50
2023-01-22T09:30:58.245Z,345.00
2023-01-22T09:31:58.211Z,462.10
2023-01-22T09:32:58.204Z,972.90
2023-01-22T09:33:58.125Z,972.50
2023-01-22T09:34:58.135Z,824.40
2023-01-22T09:35:58.115Z,999.90
2023-01-22T09:36:58.099Z,999.90
2023-01-22T09:37:58.098Z,999.90
2023-01-22T09:38:58.130Z,999.90
2023-01-22T09:39:58.091Z,488.70
2023-01-22T09:40:58.055Z,255.60
2023-01-22T09:41:58.044Z,999.90
2023-01-22T09:42:58.043Z,999.90
2023-01-22T09:43:58.081Z,999.90
2023-01-22T09:44:58.046Z,320.50
2023-01-22T09:45:58.016Z,267.60
2023-01-22T09:46:57.998Z,999.90
2023-01-22T09:47:57.980Z,999.90
2023-01-22T09:48:58.027Z,999.90
2023-01-22T09:49:57.936Z,999.90
2023-01-22T09:50:57.936Z,999.90
2023-01-22T09:51:57.898Z,999.90
2023-01-22T09:52:57.926Z,132.80
2023-01-22T09:53:57.946Z,99.80
2023-01-22T09:54:57.892Z,62.80
2023-01-22T09:55:57.866Z,69.50
2023-01-22T09:56:57.869Z,999.90
2023-01-22T09:57:57.863Z,999.90
2023-01-22T09:58:57.903Z,999.90
2023-01-22T09:59:57.833Z,999.90
2023-01-22T10:01:00.124Z,999.90
2023-01-22T10:01:57.815Z,999.90
2023-01-22T10:02:57.819Z,181.30
2023-01-22T10:03:57.832Z,127.50
2023-01-22T10:04:57.787Z,127.20
2023-01-22T10:05:57.798Z,114.20
2023-01-22T10:06:57.768Z,999.90
2023-01-22T10:07:57.725Z,999.90
2023-01-22T10:08:57.782Z,999.90
2023-01-22T10:09:57.734Z,116.10
2023-01-22T10:10:57.757Z,77.10
2023-01-22T10:11:57.689Z,999.90
2023-01-22T10:12:57.705Z,999.90
2023-01-22T10:13:57.733Z,999.90
2023-01-22T10:14:57.690Z,999.90
2023-01-22T10:15:57.664Z,999.90
2023-01-22T10:16:57.669Z,999.90
2023-01-22T10:17:57.627Z,159.80
2023-01-22T10:18:57.660Z,80.00
2023-01-22T10:19:57.623Z,999.90
2023-01-22T10:20:57.608Z,999.90
2023-01-22T10:21:57.586Z,999.90
2023-01-22T10:22:57.577Z,326.60
2023-01-22T10:23:57.611Z,999.90
2023-01-22T10:24:57.561Z,999.90
2023-01-22T10:25:57.572Z,999.90
2023-01-22T10:26:57.538Z,142.00
2023-01-22T10:27:57.527Z,201.70
2023-01-22T10:28:57.561Z,165.60
2023-01-22T10:29:57.526Z,79.80
2023-01-22T10:30:57.552Z,999.90
2023-01-22T10:31:57.565Z,999.90
2023-01-22T10:32:57.481Z,999.90
2023-01-22T10:33:57.518Z,999.90
2023-01-22T10:34:57.455Z,999.90
2023-01-22T10:35:57.445Z,999.90
2023-01-22T10:36:57.412Z,999.90
2023-01-22T10:37:57.433Z,247.20
2023-01-22T10:38:57.459Z,999.90
2023-01-22T10:39:57.402Z,999.90
2023-01-22T10:40:57.375Z,999.90
2023-01-22T10:41:57.368Z,999.90
2023-01-22T10:42:57.367Z,999.90
2023-01-22T10:43:57.392Z,999.90
2023-01-22T10:44:57.323Z,999.90
2023-01-22T10:45:57.327Z,210.30
2023-01-22T10:46:57.315Z,999.90
2023-01-22T10:47:57.290Z,999.90
2023-01-22T10:48:57.336Z,999.90
2023-01-22T10:49:57.270Z,999.90
2023-01-22T10:50:57.283Z,999.90
2023-01-22T10:51:57.242Z,107.60
2023-01-22T10:52:57.236Z,999.90
2023-01-22T10:53:57.284Z,999.90
2023-01-22T10:54:57.218Z,999.90
2023-01-22T10:55:57.226Z,999.90
2023-01-22T10:56:57.198Z,999.90
2023-01-22T10:57:57.200Z,999.90
2023-01-22T10:58:57.241Z,999.90
2023-01-22T10:59:57.155Z,999.90
2023-01-22T11:00:57.172Z,999.90
2023-01-22T11:01:57.164Z,999.90
2023-01-22T11:02:57.143Z,999.90
2023-01-22T11:03:57.158Z,999.90
2023-01-22T11:04:57.107Z,999.90
2023-01-22T11:05:57.124Z,999.90
2023-01-22T11:06:57.100Z,999.90
2023-01-22T11:07:57.077Z,999.90
2023-01-22T11:08:57.113Z,999.90
2023-01-22T11:09:57.039Z,999.90
2023-01-22T11:10:57.032Z,304.80
2023-01-22T11:11:57.022Z,999.90
2023-01-22T11:12:59.324Z,999.90
2023-01-22T11:13:57.047Z,999.90
2023-01-22T11:14:56.994Z,999.90
2023-01-22T11:15:57.074Z,999.90
2023-01-22T11:16:56.982Z,999.90
2023-01-22T11:17:56.975Z,160.40
2023-01-22T11:18:57.012Z,999.90
2023-01-22T11:19:56.953Z,999.90
2023-01-22T11:20:56.950Z,999.90
2023-01-22T11:21:56.923Z,999.90
2023-01-22T11:22:56.919Z,999.90
2023-01-22T11:23:56.966Z,999.90
2023-01-22T11:24:56.901Z,999.90
2023-01-22T11:25:56.878Z,999.90
2023-01-22T11:26:56.857Z,999.90
2023-01-22T11:27:56.959Z,999.90
2023-01-22T11:28:56.886Z,999.90
2023-01-22T11:29:56.851Z,999.90
2023-01-22T11:30:56.887Z,999.90
2023-01-22T11:31:56.791Z,999.90
2023-01-22T11:32:56.787Z,999.90
2023-01-22T11:33:56.833Z,264.80
2023-01-22T11:34:56.783Z,119.20
2023-01-22T11:35:56.767Z,999.90
2023-01-22T11:36:56.757Z,999.90
2023-01-22T11:37:56.742Z,999.90
2023-01-22T11:38:56.765Z,999.90
2023-01-22T11:39:56.716Z,999.90
2023-01-22T11:40:56.695Z,999.90
2023-01-22T11:41:56.692Z,265.40
2023-01-22T11:42:56.686Z,119.80
2023-01-22T11:43:56.733Z,999.90
2023-01-22T11:44:56.665Z,999.90
2023-01-22T11:45:56.695Z,999.90
2023-01-22T11:46:56.641Z,999.90
2023-01-22T11:47:56.621Z,999.90
2023-01-22T11:48:56.659Z,346.90
2023-01-22T11:49:56.607Z,197.80
2023-01-22T11:50:56.631Z,999.90
2023-01-22T11:51:56.585Z,999.90
2023-01-22T11:52:56.570Z,999.90
2023-01-22T11:53:56.614Z,999.90
2023-01-22T11:54:56.564Z,125.20
2023-01-22T11:55:56.560Z,136.30
2023-01-22T11:56:56.518Z,999.90
2023-01-22T11:57:56.521Z,999.90
2023-01-22T11:58:56.569Z,999.90
2023-01-22T11:59:56.502Z,999.90
2023-01-22T12:00:56.479Z,999.90
2023-01-22T12:01:56.507Z,999.90
2023-01-22T12:02:56.554Z,999.90
2023-01-22T12:03:56.536Z,999.90
2023-01-22T12:04:56.438Z,999.90
2023-01-22T12:05:56.425Z,999.90
2023-01-22T12:06:56.450Z,999.90
2023-01-22T12:07:56.415Z,999.90
2023-01-22T12:08:56.435Z,999.90
2023-01-22T12:09:56.398Z,999.90
2023-01-22T12:10:56.400Z,392.60
2023-01-22T12:11:56.380Z,127.30
2023-01-22T12:12:56.369Z,999.90
2023-01-22T12:13:56.409Z,999.90
2023-01-22T12:14:56.360Z,999.90
2023-01-22T12:15:56.359Z,999.90
2023-01-22T12:16:56.322Z,416.60
2023-01-22T12:17:56.310Z,262.50
2023-01-22T12:18:56.340Z,999.90
2023-01-22T12:19:56.301Z,999.90
2023-01-22T12:20:56.275Z,999.90
2023-01-22T12:21:56.270Z,999.90
2023-01-22T12:22:56.267Z,999.90
2023-01-22T12:23:56.274Z,999.90
2023-01-22T12:24:56.235Z,999.90
2023-01-22T12:25:56.232Z,999.90
2023-01-22T12:26:56.218Z,181.50
2023-01-22T12:27:56.188Z,999.90
2023-01-22T12:28:56.217Z,999.90
2023-01-22T12:29:56.173Z,999.90